Time;durP1;ratioP1;P1;durP2;ratioP2;P2;SDS_P1;SDS_P2;PMS_P1;PMS_P2;Temp;Humidity;BMP_temperature;BMP_pressure;BME280_temperature;BME280_humidity;BME280_pressure;Samples;Min_cycle;Max_cycle;Signal;HPM_P1;HPM_P2
2022/10/21 00:00:26;;;;;;;50.50;6.50;;;;;;;12.21;100.00;95694.13;5022542;28;25004;-75
2022/10/21 00:02:52;;;;;;;93.10;9.50;;;;;;;12.10;100.00;95692.28;5027479;28;24461;-76
2022/10/21 00:05:19;;;;;;;66.13;7.18;;;;;;;12.05;100.00;95668.44;5017094;28;24436;-75
2022/10/21 00:07:47;;;;;;;56.58;7.65;;;;;;;12.22;100.00;95656.84;5018191;28;24451;-75
2022/10/21 00:10:13;;;;;;;57.00;7.37;;;;;;;12.40;100.00;95654.69;5018101;28;24432;-75
2022/10/21 00:12:40;;;;;;;32.47;6.00;;;;;;;12.41;100.00;95647.72;5022035;28;24517;-75
2022/10/21 00:15:09;;;;;;;34.00;5.80;;;;;;;12.39;100.00;95652.22;5015621;28;24448;-75
2022/10/21 00:17:37;;;;;;;20.20;5.53;;;;;;;12.27;100.00;95649.56;5017946;28;24451;-75
2022/10/21 00:20:04;;;;;;;7.50;5.97;;;;;;;12.24;100.00;95652.38;5018676;28;24428;-75
2022/10/21 00:22:31;;;;;;;6.73;5.80;;;;;;;12.23;100.00;95632.53;5018012;28;25017;-75
2022/10/21 00:24:59;;;;;;;13.27;6.33;;;;;;;12.18;100.00;95631.22;5016337;28;24503;-75
2022/10/21 00:27:25;;;;;;;9.05;6.10;;;;;;;12.21;100.00;95637.00;5022614;28;24440;-75
2022/10/21 00:29:52;;;;;;;7.97;6.78;;;;;;;12.20;100.00;95626.72;5026851;28;24438;-76
2022/10/21 00:32:19;;;;;;;7.53;6.25;;;;;;;12.20;100.00;95624.13;5025715;28;24428;-75
2022/10/21 00:34:46;;;;;;;7.18;6.47;;;;;;;12.18;100.00;95620.81;5016281;28;25036;-76
2022/10/21 00:37:13;;;;;;;9.53;6.97;;;;;;;12.05;100.00;95619.13;5022049;28;24439;-76
2022/10/21 00:39:40;;;;;;;8.80;7.85;;;;;;;11.95;100.00;95623.28;5025574;28;24443;-76
2022/10/21 00:42:15;;;;;;;17.45;8.98;;;;;;;11.88;100.00;95621.22;5020839;28;24452;-75
2022/10/21 00:44:41;;;;;;;11.48;8.95;;;;;;;11.91;100.00;95619.25;5019515;28;24436;-75
2022/10/21 00:47:12;;;;;;;11.18;9.00;;;;;;;11.92;100.00;95622.69;5021656;28;25000;-75
2022/10/21 00:49:42;;;;;;;11.63;8.68;;;;;;;11.97;100.00;95628.34;5024845;28;24436;-76
2022/10/21 00:52:14;;;;;;;15.20;10.20;;;;;;;11.98;100.00;95622.25;5023362;28;24432;-75
2022/10/21 00:54:43;;;;;;;12.50;10.05;;;;;;;11.95;100.00;95625.88;5019345;28;24432;-76
2022/10/21 00:57:11;;;;;;;11.27;8.95;;;;;;;12.00;100.00;95628.97;5026427;28;24447;-75
2022/10/21 00:59:41;;;;;;;9.43;8.43;;;;;;;12.06;100.00;95630.31;5027355;28;24439;-75
2022/10/21 01:02:08;;;;;;;8.68;7.28;;;;;;;12.04;100.00;95621.78;5025331;28;24444;-75
2022/10/21 01:04:35;;;;;;;8.75;7.22;;;;;;;12.03;100.00;95622.75;5026195;28;24432;-75
2022/10/21 01:07:02;;;;;;;12.88;8.13;;;;;;;12.03;100.00;95630.53;5025629;28;25031;-75
2022/10/21 01:09:30;;;;;;;31.67;8.90;;;;;;;11.88;100.00;95639.41;5016474;28;24439;-76
2022/10/21 01:11:57;;;;;;;61.80;8.40;;;;;;;11.77;100.00;95651.31;5024983;28;24428;-75
2022/10/21 01:14:46;;;;;;;40.67;6.30;;;;;;;11.76;100.00;95654.84;5031036;28;24435;-75
2022/10/21 01:17:25;;;;;;;41.38;7.50;;;;;;;11.93;100.00;95627.75;5023309;28;24446;-75
2022/10/21 01:20:27;;;;;;;27.55;6.63;;;;;;;11.91;100.00;95621.03;5026763;28;24439;-75
2022/10/21 01:23:23;;;;;;;7.65;5.95;;;;;;;11.95;100.00;95622.47;5027088;28;24542;-75
2022/10/21 01:26:08;;;;;;;15.53;5.80;;;;;;;11.97;100.00;95611.00;5018267;28;24460;-76
2022/10/21 01:28:49;;;;;;;9.15;5.95;;;;;;;11.99;100.00;95603.97;5025660;28;25024;-76
2022/10/21 01:31:20;;;;;;;26.20;5.78;;;;;;;12.05;100.00;95593.16;5029180;28;24802;-76
2022/10/21 01:33:54;;;;;;;22.63;5.07;;;;;;;12.26;100.00;95590.75;5025707;28;24973;-76
2022/10/21 01:36:30;;;;;;;24.27;4.97;;;;;;;12.33;100.00;95581.59;5022973;28;24439;-76
2022/10/21 01:39:09;;;;;;;25.63;4.45;;;;;;;12.15;100.00;95585.50;5030374;28;25000;-75
2022/10/21 01:41:41;;;;;;;11.63;4.45;;;;;;;12.00;100.00;95599.59;5021903;28;25038;-75
2022/10/21 01:44:16;;;;;;;17.65;5.13;;;;;;;11.83;100.00;95611.16;5030433;28;24815;-75
2022/10/21 01:46:48;;;;;;;11.25;5.97;;;;;;;11.79;100.00;95602.75;5027851;28;24440;-75
2022/10/21 01:49:20;;;;;;;11.35;8.02;;;;;;;11.73;100.00;95607.53;5029542;28;24466;-75
2022/10/21 01:51:47;;;;;;;14.10;7.70;;;;;;;11.74;100.00;95606.59;5027633;28;24432;-75
2022/10/21 01:54:19;;;;;;;7.13;6.40;;;;;;;11.80;100.00;95612.19;5030140;28;24432;-75
2022/10/21 01:56:48;;;;;;;7.90;6.68;;;;;;;11.82;100.00;95599.91;5025535;28;24444;-75
2022/10/21 01:59:17;;;;;;;7.55;6.70;;;;;;;11.84;100.00;95592.06;5030447;28;24965;-75
2022/10/21 02:01:46;;;;;;;11.18;7.18;;;;;;;11.83;100.00;95608.56;5029114;28;24448;-75
2022/10/21 02:04:15;;;;;;;25.50;7.87;;;;;;;11.72;100.00;95588.56;5030374;28;24460;-75
2022/10/21 02:06:42;;;;;;;41.77;7.57;;;;;;;11.63;100.00;95571.03;5026866;28;25000;-75
2022/10/21 02:09:08;;;;;;;17.98;5.90;;;;;;;11.66;100.00;95570.81;5027144;28;24437;-75
2022/10/21 02:11:38;;;;;;;9.40;6.70;;;;;;;11.66;100.00;95570.81;5026650;28;24520;-75
2022/10/21 02:14:10;;;;;;;8.68;6.65;;;;;;;11.63;100.00;95565.84;5027927;28;24428;-75
2022/10/21 02:16:39;;;;;;;10.95;7.30;;;;;;;11.68;100.00;95568.94;5024318;28;24996;-75
2022/10/21 02:19:13;;;;;;;9.32;6.70;;;;;;;11.72;100.00;95552.22;5021995;28;24443;-75
2022/10/21 02:21:40;;;;;;;10.50;7.70;;;;;;;11.70;100.00;95541.13;5024882;28;24453;-75
2022/10/21 02:24:13;;;;;;;16.00;7.07;;;;;;;11.75;100.00;95535.59;5027855;28;24447;-75
2022/10/21 02:26:40;;;;;;;7.82;6.53;;;;;;;11.77;100.00;95537.16;5016620;28;24436;-75
2022/10/21 02:29:07;;;;;;;9.30;7.43;;;;;;;11.69;100.00;95536.06;5028823;28;24436;-75
2022/10/21 02:31:50;;;;;;;8.48;7.03;;;;;;;11.69;100.00;95529.09;5016918;28;24448;-75
2022/10/21 02:34:29;;;;;;;9.60;7.18;;;;;;;11.73;100.00;95522.75;5025557;28;24436;-75
2022/10/21 02:37:03;;;;;;;11.35;7.63;;;;;;;11.75;100.00;95531.22;5027488;28;24985;-75
2022/10/21 02:39:34;;;;;;;9.38;6.93;;;;;;;11.72;100.00;95505.53;5022279;28;24427;-75
2022/10/21 02:42:04;;;;;;;8.95;7.10;;;;;;;11.77;100.00;95495.63;5023666;28;24457;-75
2022/10/21 02:44:30;;;;;;;14.45;8.27;;;;;;;11.73;100.00;95495.97;5019642;28;24443;-75
2022/10/21 02:46:57;;;;;;;10.60;7.78;;;;;;;11.69;100.00;95502.34;5021686;28;24444;-75
2022/10/21 02:49:25;;;;;;;11.07;7.55;;;;;;;11.65;100.00;95501.72;5014186;28;25495;-75
2022/10/21 02:51:52;;;;;;;8.93;6.68;;;;;;;11.71;100.00;95496.06;5026813;28;24443;-75
2022/10/21 02:54:18;;;;;;;10.73;7.80;;;;;;;11.78;100.00;95494.69;5028574;28;24475;-75
2022/10/21 02:56:45;;;;;;;7.60;6.47;;;;;;;11.84;100.00;95490.88;5029629;28;24448;-75
2022/10/21 02:59:11;;;;;;;10.18;6.82;;;;;;;11.82;100.00;95490.13;5020679;28;25016;-75
2022/10/21 03:01:38;;;;;;;15.88;7.30;;;;;;;11.86;100.00;95489.84;5021447;28;24439;-75
2022/10/21 03:04:04;;;;;;;10.32;7.63;;;;;;;11.71;100.00;95483.09;5029538;28;24438;-75
2022/10/21 03:06:32;;;;;;;22.98;8.15;;;;;;;11.65;100.00;95483.56;5024054;28;24439;-75
2022/10/21 03:08:59;;;;;;;18.60;7.57;;;;;;;11.61;100.00;95484.72;5023154;28;24802;-75
2022/10/21 03:11:25;;;;;;;9.60;7.22;;;;;;;11.68;100.00;95483.34;5019350;28;24992;-75
2022/10/21 03:13:52;;;;;;;14.35;8.38;;;;;;;11.62;100.00;95470.81;5027197;28;24642;-75
2022/10/21 03:16:18;;;;;;;8.48;7.28;;;;;;;11.68;100.00;95472.97;5025251;28;24428;-76
2022/10/21 03:18:45;;;;;;;8.55;7.07;;;;;;;11.72;100.00;95460.59;5023646;28;24435;-76
2022/10/21 03:21:11;;;;;;;8.13;6.90;;;;;;;11.77;100.00;95469.69;5023956;28;25003;-76
2022/10/21 03:23:40;;;;;;;8.30;6.63;;;;;;;11.80;100.00;95481.63;5028734;28;24487;-75
2022/10/21 03:26:06;;;;;;;8.85;6.88;;;;;;;11.76;100.00;95478.44;5016617;28;24432;-75
2022/10/21 03:28:33;;;;;;;11.77;7.53;;;;;;;11.73;100.00;95488.19;5023962;28;25012;-75
2022/10/21 03:30:59;;;;;;;9.25;7.28;;;;;;;11.73;100.00;95494.22;5025842;28;25011;-75
2022/10/21 03:33:26;;;;;;;10.88;7.53;;;;;;;11.70;100.00;95491.84;5026224;28;24438;-75
2022/10/21 03:35:52;;;;;;;8.98;6.63;;;;;;;11.69;100.00;95490.19;5026387;28;24999;-75
2022/10/21 03:38:19;;;;;;;9.85;6.22;;;;;;;11.75;100.00;95488.91;5020581;28;24432;-75
2022/10/21 03:40:46;;;;;;;7.97;6.40;;;;;;;11.76;100.00;95493.16;5026509;28;24443;-75
2022/10/21 03:43:13;;;;;;;16.17;6.20;;;;;;;11.73;100.00;95491.63;5026109;28;24455;-75
2022/10/21 03:45:39;;;;;;;11.25;6.57;;;;;;;11.76;100.00;95481.03;5025728;28;25007;-75
2022/10/21 03:48:06;;;;;;;7.67;5.97;;;;;;;11.81;100.00;95484.09;5023747;28;24431;-75
2022/10/21 03:50:32;;;;;;;7.40;6.17;;;;;;;11.78;100.00;95481.72;5022740;28;24521;-75
2022/10/21 03:52:59;;;;;;;8.52;5.82;;;;;;;11.87;100.00;95477.69;5016566;28;24434;-75
2022/10/21 03:55:26;;;;;;;9.50;6.00;;;;;;;11.90;100.00;95476.63;5026072;28;24490;-75
2022/10/21 03:57:54;;;;;;;8.55;6.22;;;;;;;11.92;100.00;95472.97;5023838;28;24439;-75
2022/10/21 04:00:21;;;;;;;8.15;5.90;;;;;;;11.98;100.00;95464.75;5026192;28;25036;-75
2022/10/21 04:02:48;;;;;;;10.00;6.33;;;;;;;11.99;100.00;95462.97;5024924;28;24535;-75
2022/10/21 04:05:15;;;;;;;9.50;6.00;;;;;;;11.95;100.00;95446.81;5024869;28;24511;-75
2022/10/21 04:07:42;;;;;;;14.55;6.13;;;;;;;11.93;100.00;95459.06;5026317;28;25020;-75
2022/10/21 04:10:10;;;;;;;7.43;6.00;;;;;;;11.96;100.00;95450.22;5018157;28;24720;-75
2022/10/21 04:12:36;;;;;;;13.50;7.40;;;;;;;11.90;100.00;95446.28;5027105;28;24439;-75
2022/10/21 04:15:06;;;;;;;8.55;6.45;;;;;;;11.99;100.00;95444.81;5023544;28;24432;-76
2022/10/21 04:17:32;;;;;;;7.18;5.63;;;;;;;12.29;100.00;95431.31;5024526;28;24802;-76
2022/10/21 04:19:59;;;;;;;10.00;5.95;;;;;;;12.07;100.00;95434.69;5021384;28;24447;-76
2022/10/21 04:22:25;;;;;;;8.25;5.80;;;;;;;12.17;100.00;95440.03;5025447;28;25048;-74
2022/10/21 04:24:52;;;;;;;10.70;6.20;;;;;;;12.28;100.00;95437.47;5024468;28;24560;-75
2022/10/21 04:27:18;;;;;;;8.13;5.32;;;;;;;12.22;100.00;95437.91;5029991;28;24466;-74
2022/10/21 04:29:45;;;;;;;7.38;5.70;;;;;;;12.18;100.00;95428.72;5027947;28;24443;-74
2022/10/21 04:32:13;;;;;;;8.05;5.75;;;;;;;12.13;100.00;95430.81;5031258;28;24443;-74
2022/10/21 04:34:39;;;;;;;10.70;6.30;;;;;;;12.05;100.00;95423.59;5027193;28;25024;-74
2022/10/21 04:37:06;;;;;;;8.68;6.28;;;;;;;12.07;100.00;95419.13;5028973;28;24447;-74
2022/10/21 04:39:32;;;;;;;9.77;5.78;;;;;;;12.09;100.00;95409.47;5018330;28;24811;-74
2022/10/21 04:41:59;;;;;;;9.55;6.15;;;;;;;12.13;100.00;95403.09;5031268;28;24436;-74
2022/10/21 04:44:25;;;;;;;12.27;6.25;;;;;;;12.11;100.00;95417.94;5028206;28;25009;-74
2022/10/21 04:46:52;;;;;;;10.80;5.82;;;;;;;12.17;100.00;95419.28;5022760;28;24443;-74
2022/10/21 04:49:20;;;;;;;9.70;6.18;;;;;;;12.19;100.00;95418.19;5023908;28;24439;-74
2022/10/21 04:51:46;;;;;;;10.43;6.30;;;;;;;12.20;100.00;95419.03;5029613;28;24647;-73
2022/10/21 04:54:13;;;;;;;13.95;7.15;;;;;;;12.20;100.00;95427.66;5029917;28;24427;-74
2022/10/21 04:56:40;;;;;;;11.98;7.05;;;;;;;12.16;100.00;95435.78;5022235;28;24451;-74
2022/10/21 04:59:06;;;;;;;10.95;5.65;;;;;;;12.12;100.00;95424.78;5028453;28;24482;-74
2022/10/21 05:01:33;;;;;;;10.20;6.30;;;;;;;12.19;100.00;95432.94;5016247;28;24460;-74
2022/10/21 05:03:59;;;;;;;13.20;6.82;;;;;;;12.14;100.00;95433.31;5026451;28;24458;-74
2022/10/21 05:06:27;;;;;;;10.25;6.82;;;;;;;12.15;100.00;95432.34;5027229;28;24801;-74
2022/10/21 05:08:54;;;;;;;9.45;6.40;;;;;;;12.14;100.00;95435.91;5025567;28;24435;-73
2022/10/21 05:11:20;;;;;;;8.55;6.57;;;;;;;12.16;100.00;95434.00;5028987;28;24798;-73
2022/10/21 05:13:47;;;;;;;9.55;6.25;;;;;;;12.18;100.00;95433.91;5027798;28;24435;-74
2022/10/21 05:16:13;;;;;;;10.90;6.43;;;;;;;12.15;100.00;95431.53;5029490;28;24518;-74
2022/10/21 05:18:40;;;;;;;11.15;6.30;;;;;;;12.16;100.00;95428.81;5029641;28;24484;-73
2022/10/21 05:21:06;;;;;;;13.40;5.85;;;;;;;12.20;100.00;95430.25;5030927;28;24443;-73
2022/10/21 05:23:34;;;;;;;10.35;6.45;;;;;;;12.18;100.00;95429.53;5023735;28;24471;-73
2022/10/21 05:26:01;;;;;;;9.13;5.80;;;;;;;12.21;100.00;95420.69;5026892;28;24438;-73
2022/10/21 05:28:27;;;;;;;9.45;6.40;;;;;;;12.22;100.00;95420.56;5029600;28;24451;-72
2022/10/21 05:30:54;;;;;;;9.50;5.88;;;;;;;12.26;100.00;95415.97;5029076;28;24436;-71
2022/10/21 05:33:20;;;;;;;11.52;6.25;;;;;;;12.24;100.00;95408.31;5021384;28;24435;-71
2022/10/21 05:35:55;;;;;;;11.73;6.18;;;;;;;12.27;100.00;95405.50;5016259;28;24455;-72
2022/10/21 05:38:21;;;;;;;12.07;6.00;;;;;;;12.32;100.00;95405.97;5025020;28;24446;-73
2022/10/21 05:40:49;;;;;;;16.13;6.25;;;;;;;12.34;100.00;95406.66;5028285;28;24477;-73
2022/10/21 05:43:16;;;;;;;14.93;6.05;;;;;;;12.32;100.00;95390.38;5023791;28;24455;-73
2022/10/21 05:45:42;;;;;;;12.43;6.20;;;;;;;12.33;100.00;95402.41;5016214;28;24447;-74
2022/10/21 05:48:09;;;;;;;12.38;6.53;;;;;;;12.40;100.00;95389.78;5018654;28;24538;-74
2022/10/21 05:50:35;;;;;;;13.93;5.88;;;;;;;12.40;100.00;95392.41;5024565;28;25020;-73
2022/10/21 05:53:02;;;;;;;9.93;5.20;;;;;;;12.40;100.00;95387.19;5017893;28;24807;-74
2022/10/21 05:55:29;;;;;;;12.90;5.90;;;;;;;12.44;100.00;95386.03;5018836;28;24444;-74
2022/10/21 05:57:56;;;;;;;8.23;5.35;;;;;;;12.45;100.00;95372.06;5026781;28;24451;-74
2022/10/21 06:00:23;;;;;;;9.00;5.25;;;;;;;12.45;100.00;95360.88;5024339;28;24443;-75
2022/10/21 06:02:49;;;;;;;17.50;5.32;;;;;;;12.50;100.00;95356.16;5020936;28;24796;-74
2022/10/21 06:05:16;;;;;;;10.73;5.15;;;;;;;12.48;100.00;95371.03;5025313;28;24439;-74
2022/10/21 06:07:43;;;;;;;10.93;4.90;;;;;;;12.49;100.00;95380.47;5022337;28;24447;-78
2022/10/21 06:10:11;;;;;;;10.37;5.37;;;;;;;12.48;100.00;95394.41;5024376;28;24437;-74
2022/10/21 06:12:37;;;;;;;9.75;4.97;;;;;;;12.48;100.00;95389.22;5028738;28;24439;-75
2022/10/21 06:15:06;;;;;;;10.85;5.13;;;;;;;12.51;100.00;95383.78;5021342;28;24439;-75
2022/10/21 06:17:33;;;;;;;8.70;4.93;;;;;;;12.52;100.00;95383.66;5028295;28;24443;-75
2022/10/21 06:20:00;;;;;;;11.27;4.43;;;;;;;12.57;100.00;95380.72;5026221;28;24443;-76
2022/10/21 06:22:27;;;;;;;12.60;4.78;;;;;;;12.59;100.00;95378.81;5029310;28;24443;-76
2022/10/21 06:24:53;;;;;;;10.70;4.85;;;;;;;12.66;100.00;95369.63;5025710;28;25262;-75
2022/10/21 06:27:20;;;;;;;10.15;5.32;;;;;;;12.64;100.00;95386.25;5029395;28;24442;-75
2022/10/21 06:29:46;;;;;;;9.57;4.43;;;;;;;12.64;100.00;95402.66;5031573;28;24446;-75
2022/10/21 06:32:14;;;;;;;10.33;4.50;;;;;;;12.67;100.00;95412.00;5029914;28;25000;-76
2022/10/21 06:34:41;;;;;;;10.70;4.55;;;;;;;12.68;100.00;95404.09;5025978;28;26166;-75
2022/10/21 06:37:07;;;;;;;14.48;5.07;;;;;;;12.69;100.00;95421.34;5029372;28;24444;-75
2022/10/21 06:39:34;;;;;;;19.20;5.23;;;;;;;12.65;100.00;95435.53;5021157;28;24523;-78
2022/10/21 06:42:00;;;;;;;21.27;5.03;;;;;;;12.70;100.00;95438.59;5025553;28;24801;-74
2022/10/21 06:44:27;;;;;;;10.27;4.22;;;;;;;12.64;100.00;95444.22;5027096;28;25092;-74
2022/10/21 06:46:53;;;;;;;8.73;4.38;;;;;;;12.65;100.00;95416.50;5028738;28;24446;-74
2022/10/21 06:49:21;;;;;;;9.65;4.22;;;;;;;12.75;100.00;95414.84;5022738;28;24497;-75
2022/10/21 06:51:48;;;;;;;6.83;4.00;;;;;;;12.72;100.00;95397.72;5023850;28;24793;-74
2022/10/21 06:54:14;;;;;;;9.23;4.30;;;;;;;12.77;100.00;95405.16;5016436;28;24443;-74
2022/10/21 06:56:41;;;;;;;10.35;4.60;;;;;;;12.92;100.00;95401.38;5017262;28;24440;-75
2022/10/21 06:59:07;;;;;;;10.02;4.00;;;;;;;13.00;100.00;95409.38;5023670;28;24440;-75
2022/10/21 07:01:35;;;;;;;9.05;4.00;;;;;;;12.97;100.00;95396.63;5021633;28;25015;-76
2022/10/21 07:04:02;;;;;;;14.60;4.15;;;;;;;13.01;100.00;95394.63;5017248;28;24875;-73
2022/10/21 07:06:30;;;;;;;13.00;4.63;;;;;;;13.00;100.00;95393.78;5022496;28;24443;-77
2022/10/21 07:08:56;;;;;;;12.03;4.50;;;;;;;12.97;100.00;95388.84;5023355;28;24447;-77
2022/10/21 07:11:23;;;;;;;9.13;4.45;;;;;;;12.98;100.00;95376.69;5028712;28;24450;-77
2022/10/21 07:13:49;;;;;;;11.27;4.57;;;;;;;12.96;100.00;95387.19;5021299;28;24440;-77
2022/10/21 07:16:21;;;;;;;9.45;4.35;;;;;;;12.99;100.00;95389.56;5021953;28;24424;-77
2022/10/21 07:18:48;;;;;;;9.17;3.87;;;;;;;13.00;100.00;95392.97;5025970;28;24432;-77
2022/10/21 07:21:16;;;;;;;18.27;5.03;;;;;;;13.00;100.00;95419.78;5028147;28;24432;-77
2022/10/21 07:23:46;;;;;;;8.73;4.40;;;;;;;13.03;100.00;95426.53;5018978;28;24483;-77
2022/10/21 07:26:13;;;;;;;13.65;4.43;;;;;;;12.99;100.00;95446.75;5016344;28;24941;-77
2022/10/21 07:28:40;;;;;;;12.87;4.53;;;;;;;12.92;100.00;95440.34;5025844;28;24443;-77
2022/10/21 07:31:08;;;;;;;7.90;4.80;;;;;;;12.96;100.00;95433.97;5023505;28;24443;-77
2022/10/21 07:33:35;;;;;;;9.20;4.40;;;;;;;12.90;100.00;95425.81;5018771;28;24440;-77
2022/10/21 07:36:06;;;;;;;11.13;4.45;;;;;;;12.91;100.00;95430.09;5023714;28;24821;-77
2022/10/21 07:38:33;;;;;;;12.25;4.85;;;;;;;12.91;100.00;95425.72;5017414;28;24446;-77
2022/10/21 07:41:01;;;;;;;9.23;4.47;;;;;;;12.95;100.00;95414.13;5025176;28;24984;-76
2022/10/21 07:43:28;;;;;;;8.23;3.97;;;;;;;12.97;100.00;95407.03;5022721;28;24544;-75
2022/10/21 07:45:56;;;;;;;7.93;3.92;;;;;;;13.02;100.00;95404.09;5020226;28;24455;-77
2022/10/21 07:48:23;;;;;;;8.30;3.92;;;;;;;13.03;100.00;95403.13;5026333;28;24446;-77
2022/10/21 07:50:50;;;;;;;8.95;4.03;;;;;;;13.03;100.00;95401.34;5025528;28;24825;-77
2022/10/21 07:53:17;;;;;;;12.77;4.03;;;;;;;13.02;100.00;95391.91;5018919;28;24878;-76
2022/10/21 07:55:43;;;;;;;9.82;4.28;;;;;;;13.07;100.00;95388.94;5023146;28;24798;-77
2022/10/21 07:58:11;;;;;;;14.02;4.05;;;;;;;13.11;100.00;95398.16;5028559;28;24447;-77
2022/10/21 08:00:42;;;;;;;8.60;3.50;;;;;;;13.12;100.00;95404.19;5024195;28;24438;-76
2022/10/21 08:03:10;;;;;;;8.95;3.78;;;;;;;13.13;100.00;95398.88;5028066;28;24440;-76
2022/10/21 08:05:39;;;;;;;9.50;4.22;;;;;;;13.18;100.00;95396.72;5021813;28;24820;-77
2022/10/21 08:08:06;;;;;;;5.93;3.75;;;;;;;13.25;100.00;95397.94;5022865;28;24446;-76
2022/10/21 08:10:32;;;;;;;6.82;3.85;;;;;;;13.30;100.00;95400.97;5025694;28;24463;-77
2022/10/21 08:12:59;;;;;;;8.60;4.07;;;;;;;13.35;100.00;95408.44;5019585;28;24895;-76
2022/10/21 08:15:27;;;;;;;8.38;4.05;;;;;;;13.28;100.00;95408.09;5025023;28;24446;-76
2022/10/21 08:17:53;;;;;;;9.25;3.70;;;;;;;13.30;100.00;95405.34;5017226;28;24443;-76
2022/10/21 08:20:21;;;;;;;12.43;4.60;;;;;;;13.55;100.00;95404.22;5019028;28;24981;-77
2022/10/21 08:22:47;;;;;;;11.00;3.50;;;;;;;13.37;100.00;95408.31;5016483;28;24535;-77
2022/10/21 08:25:15;;;;;;;8.80;4.00;;;;;;;13.30;100.00;95394.94;5016088;28;25013;-76
2022/10/21 08:27:42;;;;;;;7.82;3.25;;;;;;;13.32;100.00;95401.69;5021142;28;24450;-76
2022/10/21 08:30:09;;;;;;;8.73;3.55;;;;;;;13.31;100.00;95412.19;5017978;28;24439;-77
2022/10/21 08:32:37;;;;;;;8.70;3.83;;;;;;;13.32;100.00;95391.28;5028328;28;24440;-76
2022/10/21 08:35:03;;;;;;;8.60;3.77;;;;;;;13.30;100.00;95432.19;5024909;28;24505;-76
2022/10/21 08:37:30;;;;;;;14.18;4.65;;;;;;;13.77;100.00;95390.31;5022209;28;24474;-76
2022/10/21 08:39:57;;;;;;;14.70;4.57;;;;;;;13.52;100.00;95431.31;5025119;28;25018;-77
2022/10/21 08:42:24;;;;;;;8.73;3.97;;;;;;;13.40;100.00;95432.31;5028439;28;24996;-77
2022/10/21 08:44:58;;;;;;;8.88;4.00;;;;;;;13.32;100.00;95434.69;5028915;28;25094;-77
2022/10/21 08:47:32;;;;;;;9.88;3.45;;;;;;;13.29;100.00;95447.94;5025776;28;24897;-77
2022/10/21 08:50:04;;;;;;;9.27;3.60;;;;;;;13.27;100.00;95442.84;5026466;28;24439;-77
2022/10/21 08:52:39;;;;;;;9.40;3.25;;;;;;;13.32;100.00;95456.31;5026736;28;24462;-75
2022/10/21 08:55:13;;;;;;;11.90;4.57;;;;;;;13.41;100.00;95469.53;5022153;28;24826;-77
2022/10/21 08:57:40;;;;;;;9.02;4.20;;;;;;;13.40;100.00;95465.28;5021004;28;24452;-75
2022/10/21 09:00:17;;;;;;;11.18;4.47;;;;;;;13.33;100.00;95475.34;5023057;28;24485;-75
2022/10/21 09:02:57;;;;;;;6.82;3.85;;;;;;;13.29;100.00;95481.75;5018781;28;24442;-74
2022/10/21 09:05:43;;;;;;;6.93;3.90;;;;;;;13.29;100.00;95489.53;5025123;28;24455;-75
2022/10/21 09:08:20;;;;;;;13.75;3.63;;;;;;;13.24;100.00;95484.69;5026751;28;24443;-74
2022/10/21 09:11:00;;;;;;;13.45;3.45;;;;;;;13.28;100.00;95500.91;5031062;28;24478;-75
2022/10/21 09:13:42;;;;;;;14.27;3.75;;;;;;;13.25;100.00;95521.94;5026121;28;24494;-75
2022/10/21 09:16:18;;;;;;;11.13;3.72;;;;;;;13.22;100.00;95507.34;5022607;28;24436;-75
2022/10/21 09:18:56;;;;;;;9.73;4.10;;;;;;;13.23;100.00;95514.22;5022155;28;25223;-75
2022/10/21 09:21:33;;;;;;;8.43;3.97;;;;;;;13.31;100.00;95498.03;5019259;28;24455;-76
2022/10/21 09:24:05;;;;;;;8.90;3.90;;;;;;;13.39;100.00;95513.06;5029653;28;24458;-76
2022/10/21 09:26:40;;;;;;;6.80;3.75;;;;;;;13.48;100.00;95504.53;5016442;28;24440;-75
2022/10/21 09:29:20;;;;;;;10.20;3.83;;;;;;;13.55;100.00;95503.09;5025899;28;24466;-76
2022/10/21 09:31:48;;;;;;;6.30;3.22;;;;;;;13.58;100.00;95502.88;5025038;28;24703;-76
2022/10/21 09:34:22;;;;;;;6.00;3.20;;;;;;;13.64;100.00;95496.34;5026367;28;24439;-75
2022/10/21 09:36:52;;;;;;;7.03;3.05;;;;;;;13.65;100.00;95501.44;5026372;28;24450;-75
2022/10/21 09:39:26;;;;;;;9.10;3.17;;;;;;;13.69;100.00;95494.22;5027536;28;24428;-76
2022/10/21 09:41:57;;;;;;;9.23;2.80;;;;;;;13.76;100.00;95496.19;5024764;28;24442;-77
2022/10/21 09:44:24;;;;;;;11.02;2.88;;;;;;;13.79;100.00;95501.16;5025807;28;24452;-75
2022/10/21 09:46:52;;;;;;;6.07;2.80;;;;;;;13.75;100.00;95507.53;5019390;28;24448;-76
2022/10/21 09:49:27;;;;;;;7.85;2.65;;;;;;;13.74;100.00;95505.91;5027176;28;24778;-77
2022/10/21 09:51:57;;;;;;;10.60;3.47;;;;;;;13.81;100.00;95511.44;5027228;28;25011;-77
2022/10/21 09:54:26;;;;;;;8.00;2.80;;;;;;;13.80;100.00;95515.81;5026799;28;24436;-78
2022/10/21 09:56:59;;;;;;;9.82;2.65;;;;;;;13.84;100.00;95518.19;5024843;28;24444;-76
2022/10/21 09:59:25;;;;;;;5.60;2.55;;;;;;;13.87;100.00;95520.53;5019348;28;24436;-76
2022/10/21 10:01:53;;;;;;;6.40;2.47;;;;;;;13.85;100.00;95515.47;5023586;28;24547;-76
2022/10/21 10:04:29;;;;;;;5.70;2.53;;;;;;;13.89;100.00;95511.66;5027567;28;24478;-76
2022/10/21 10:06:59;;;;;;;7.57;2.67;;;;;;;13.93;100.00;95518.28;5029786;28;25016;-76
2022/10/21 10:09:28;;;;;;;5.55;2.90;;;;;;;13.85;100.00;95519.84;5019231;28;24447;-76
2022/10/21 10:11:57;;;;;;;9.65;4.13;;;;;;;13.86;100.00;95524.09;5021073;28;24439;-76
2022/10/21 10:14:32;;;;;;;12.38;4.60;;;;;;;13.87;100.00;95530.94;5028207;28;24439;-76
2022/10/21 10:17:19;;;;;;;7.18;3.50;;;;;;;13.90;100.00;95522.88;5019129;28;25007;-76
2022/10/21 10:20:15;;;;;;;10.13;3.17;;;;;;;13.89;100.00;95521.25;5017060;28;24443;-76
2022/10/21 10:22:46;;;;;;;10.18;2.85;;;;;;;13.89;100.00;95516.03;5024606;28;24440;-76
2022/10/21 10:25:23;;;;;;;8.13;2.67;;;;;;;13.94;100.00;95519.09;5027038;28;24471;-76
2022/10/21 10:27:52;;;;;;;4.53;2.20;;;;;;;13.93;100.00;95525.25;5042272;22;25042;-72
2022/10/21 10:30:19;;;;;;;7.47;2.58;;;;;;;13.98;100.00;95526.56;5022058;28;24464;-72
2022/10/21 10:32:47;;;;;;;7.05;2.45;;;;;;;14.02;100.00;95534.94;5025636;28;24443;-73
2022/10/21 10:35:28;;;;;;;7.97;2.30;;;;;;;14.08;100.00;95541.44;5026633;28;24439;-73
2022/10/21 10:37:58;;;;;;;5.78;2.10;;;;;;;14.14;100.00;95546.16;5021925;28;25023;-73
2022/10/21 10:40:30;;;;;;;3.83;1.80;;;;;;;14.12;100.00;95537.63;5021711;28;24442;-73
2022/10/21 10:43:03;;;;;;;2.45;1.75;;;;;;;14.18;100.00;95543.16;5024898;28;24451;-73
2022/10/21 10:45:29;;;;;;;5.40;1.90;;;;;;;14.21;100.00;95534.28;5022549;28;24459;-73
2022/10/21 10:47:58;;;;;;;4.50;1.50;;;;;;;14.23;100.00;95524.56;5018965;28;24801;-73
2022/10/21 10:50:46;;;;;;;3.90;1.37;;;;;;;14.32;100.00;95521.22;5021921;28;24508;-73
2022/10/21 10:53:23;;;;;;;3.63;1.27;;;;;;;14.35;100.00;95517.53;5025712;28;24440;-73
2022/10/21 10:55:59;;;;;;;4.50;1.30;;;;;;;14.44;100.00;95522.00;5029046;28;24432;-73
2022/10/21 10:58:28;;;;;;;3.08;1.20;;;;;;;14.56;100.00;95539.25;5017624;28;24447;-72
2022/10/21 11:00:59;;;;;;;3.20;1.30;;;;;;;14.54;100.00;95540.34;5021131;28;24436;-72
2022/10/21 11:03:33;;;;;;;4.70;1.48;;;;;;;14.57;100.00;95543.50;5024103;28;25205;-72
2022/10/21 11:06:08;;;;;;;3.22;1.35;;;;;;;14.60;100.00;95542.44;5027212;28;24463;-72
2022/10/21 11:08:41;;;;;;;1.83;1.27;;;;;;;14.65;100.00;95548.94;5020546;28;24440;-72
2022/10/21 11:11:13;;;;;;;4.07;1.37;;;;;;;14.75;100.00;95541.16;5022244;28;24438;-72
2022/10/21 11:13:40;;;;;;;4.60;1.67;;;;;;;14.86;100.00;95545.47;5025555;28;24442;-72
2022/10/21 11:16:24;;;;;;;2.92;1.30;;;;;;;14.92;100.00;95539.75;5024557;28;24435;-72
2022/10/21 11:18:59;;;;;;;3.67;1.65;;;;;;;14.97;100.00;95546.22;5020586;28;24976;-72
2022/10/21 11:21:42;;;;;;;6.32;1.58;;;;;;;14.99;100.00;95544.34;5019149;28;25004;-72
2022/10/21 11:24:27;;;;;;;14.13;1.02;;;;;;;15.00;100.00;95552.97;5024501;28;24432;-72
2022/10/21 11:26:59;;;;;;;3.70;1.10;;;;;;;15.03;100.00;95555.34;5026756;28;24439;-72
2022/10/21 11:29:43;;;;;;;2.77;1.30;;;;;;;15.09;100.00;95553.97;5019852;28;24448;-71
2022/10/21 11:32:22;;;;;;;2.40;1.30;;;;;;;15.12;100.00;95554.56;5024276;28;24462;-72